Time;durP1;ratioP1;P1;durP2;ratioP2;P2;SDS_P1;SDS_P2;PMS_P1;PMS_P2;Temp;Humidity;BMP_temperature;BMP_pressure;BME280_temperature;BME280_humidity;BME280_pressure;Samples;Min_cycle;Max_cycle;Signal;HPM_P1;HPM_P2
2023/03/22 00:01:42;;;;;;;28.32;17.37;;;;;;;9.87;82.48;100177.81;1653795;87;21110;-62
2023/03/22 00:04:11;;;;;;;28.98;16.93;;;;;;;9.83;82.56;100182.31;1654033;85;21079;-59
2023/03/22 00:06:40;;;;;;;27.98;15.88;;;;;;;9.80;82.69;100184.08;1653804;87;21004;-61
2023/03/22 00:09:09;;;;;;;28.05;15.65;;;;;;;9.80;82.76;100185.44;1654057;85;21075;-61
2023/03/22 00:11:40;;;;;;;28.90;16.50;;;;;;;9.81;82.82;100187.66;1653760;86;21448;-61
2023/03/22 00:14:10;;;;;;;24.45;15.30;;;;;;;9.80;82.86;100185.44;1653818;85;21043;-60
2023/03/22 00:16:39;;;;;;;25.68;16.17;;;;;;;9.80;82.88;100188.70;1653826;87;21064;-61
2023/03/22 00:19:09;;;;;;;26.20;16.48;;;;;;;9.80;82.86;100185.97;1653819;87;21080;-61
2023/03/22 00:21:39;;;;;;;25.62;15.60;;;;;;;9.79;82.84;100182.38;1653839;85;21083;-60
2023/03/22 00:24:08;;;;;;;28.10;15.98;;;;;;;9.78;82.86;100183.95;1653917;87;21087;-62
2023/03/22 00:26:38;;;;;;;24.82;15.58;;;;;;;9.77;82.85;100184.47;1653795;85;21075;-61
2023/03/22 00:29:10;;;;;;;25.75;16.07;;;;;;;9.76;82.92;100184.14;1653778;87;21475;-61
2023/03/22 00:31:40;;;;;;;28.45;16.35;;;;;;;9.73;83.03;100186.40;1654097;85;21108;-61
2023/03/22 00:34:09;;;;;;;27.37;16.70;;;;;;;9.71;83.09;100193.95;1653945;87;21479;-61
2023/03/22 00:36:41;;;;;;;27.02;15.80;;;;;;;9.68;83.17;100193.83;1653868;87;21079;-62
2023/03/22 00:39:11;;;;;;;27.87;16.27;;;;;;;9.67;83.14;100192.66;1653916;85;21043;-62
2023/03/22 00:41:40;;;;;;;27.17;15.90;;;;;;;9.65;83.15;100195.59;1654026;86;21479;-60
2023/03/22 00:44:17;;;;;;;29.20;16.23;;;;;;;9.65;83.19;100202.44;1623230;87;21411;-61
2023/03/22 00:46:44;;;;;;;28.30;16.50;;;;;;;9.63;83.22;100199.05;1653980;87;21087;-60
2023/03/22 00:49:15;;;;;;;30.15;16.12;;;;;;;9.60;83.26;100196.70;1653983;85;21055;-61
2023/03/22 00:51:45;;;;;;;29.50;16.42;;;;;;;9.56;83.27;100200.03;1653979;87;21074;-62
2023/03/22 00:54:16;;;;;;;26.10;14.73;;;;;;;9.52;83.34;100200.94;1654037;85;21047;-61
2023/03/22 00:56:46;;;;;;;23.47;14.15;;;;;;;9.48;83.45;100196.91;1654057;87;21448;-61
2023/03/22 00:59:15;;;;;;;24.27;14.78;;;;;;;9.47;83.50;100195.21;1654040;85;21039;-61
2023/03/22 01:01:46;;;;;;;24.67;14.83;;;;;;;9.44;83.56;100193.72;1653868;85;21063;-61
2023/03/22 01:04:16;;;;;;;60.40;23.07;;;;;;;9.42;83.65;100190.85;1654102;85;21032;-61
2023/03/22 01:06:46;;;;;;;28.70;15.68;;;;;;;9.40;83.83;100192.94;1653885;87;21071;-61
2023/03/22 01:09:15;;;;;;;25.90;14.95;;;;;;;9.40;83.96;100191.56;1654105;85;21456;-61
2023/03/22 01:11:45;;;;;;;23.38;13.53;;;;;;;9.37;83.98;100185.97;1654137;87;21103;-62
2023/03/22 01:14:14;;;;;;;25.40;13.38;;;;;;;9.35;84.04;100193.52;1642844;87;21127;-60
2023/03/22 01:16:44;;;;;;;21.10;14.07;;;;;;;9.34;84.19;100197.30;1654028;86;21039;-61
2023/03/22 01:19:14;;;;;;;24.40;14.13;;;;;;;9.33;84.31;100190.13;1653870;85;21091;-62
2023/03/22 01:21:43;;;;;;;23.07;14.43;;;;;;;9.33;84.38;100193.39;1653703;85;21493;-60
2023/03/22 01:24:12;;;;;;;26.33;15.43;;;;;;;9.32;84.43;100195.80;1654104;86;21044;-60
2023/03/22 01:26:41;;;;;;;26.12;14.25;;;;;;;9.29;84.44;100192.93;1653751;87;21114;-61
2023/03/22 01:29:09;;;;;;;28.32;15.55;;;;;;;9.29;84.48;100190.72;1653810;85;21043;-61
2023/03/22 01:31:38;;;;;;;22.70;14.33;;;;;;;9.30;84.47;100192.41;1653503;85;21020;-59
2023/03/22 01:34:08;;;;;;;25.77;15.30;;;;;;;9.28;84.47;100195.86;1654109;86;21066;-61
2023/03/22 01:36:38;;;;;;;25.65;14.90;;;;;;;9.24;84.55;100198.14;1653793;85;21067;-60
2023/03/22 01:39:07;;;;;;;24.23;14.87;;;;;;;9.22;84.67;100204.32;1654115;85;21099;-60
2023/03/22 01:41:37;;;;;;;25.20;14.28;;;;;;;9.19;84.71;100206.08;1653707;85;21075;-61
2023/03/22 01:44:18;;;;;;;24.18;14.38;;;;;;;9.16;84.76;100214.14;1653506;85;21147;-61
2023/03/22 01:46:48;;;;;;;25.68;14.87;;;;;;;9.14;84.72;100212.12;1653348;86;21052;-61
2023/03/22 01:49:30;;;;;;;25.00;14.98;;;;;;;9.11;84.77;100217.13;1642030;85;21250;-61
2023/03/22 01:52:03;;;;;;;23.95;14.35;;;;;;;9.08;84.93;100218.84;1653528;87;21505;-61
2023/03/22 01:54:44;;;;;;;24.55;14.78;;;;;;;9.04;85.03;100217.02;1653839;85;21164;-61
2023/03/22 01:57:18;;;;;;;27.82;14.65;;;;;;;9.02;85.13;100216.36;1653165;85;21444;-61
2023/03/22 01:59:48;;;;;;;23.77;13.38;;;;;;;9.01;85.23;100223.39;1653528;87;21087;-61
2023/03/22 02:02:20;;;;;;;25.43;14.58;;;;;;;8.97;85.31;100220.19;1653276;85;21056;-61
2023/03/22 02:04:56;;;;;;;27.13;14.38;;;;;;;8.95;85.42;100224.16;1653402;85;21032;-62
2023/03/22 02:07:26;;;;;;;23.47;15.00;;;;;;;8.92;85.63;100225.91;1653729;85;21028;-61
2023/03/22 02:09:55;;;;;;;23.25;14.25;;;;;;;8.90;85.86;100228.83;1653428;85;21044;-60
2023/03/22 02:12:51;;;;;;;20.85;13.62;;;;;;;8.88;86.02;100229.53;1653600;85;21083;-60
2023/03/22 02:15:30;;;;;;;;;;;;;;;8.87;86.14;100232.79;1655341;85;21280;-61
2023/03/22 02:18:45;;;;;;;25.45;14.23;;;;;;;8.88;86.30;100233.12;1653408;85;20474;-60
2023/03/22 02:21:53;;;;;;;25.23;14.90;;;;;;;8.87;86.47;100225.11;1653574;85;21047;-61
2023/03/22 02:24:57;;;;;;;22.55;14.93;;;;;;;8.84;86.58;100226.86;1585859;89;21083;-61
2023/03/22 02:28:09;;;;;;;23.55;14.78;;;;;;;8.87;86.72;100229.21;1829892;77;22109;-62
2023/03/22 02:31:21;;;;;;;23.57;15.15;;;;;;;8.81;86.71;100238.17;1788773;80;21150;-61
2023/03/22 02:34:01;;;;;;;23.95;14.07;;;;;;;8.79;86.77;100238.88;1788716;79;21162;-61
2023/03/22 02:37:18;;;;;;;24.35;14.53;;;;;;;8.76;86.79;100244.72;1740550;80;21139;-60
2023/03/22 02:40:08;;;;;;;23.15;14.55;;;;;;;8.73;86.92;100236.91;1788390;80;21075;-60
2023/03/22 02:43:12;;;;;;;24.23;14.85;;;;;;;8.72;86.97;100238.79;1788594;80;21620;-60
2023/03/22 02:45:52;;;;;;;28.62;15.93;;;;;;;8.70;87.01;100242.23;1788712;80;21111;-61
2023/03/22 02:48:29;;;;;;;21.02;13.25;;;;;;;8.68;87.10;100247.55;1788645;79;21130;-61
2023/03/22 02:51:12;;;;;;;23.18;13.95;;;;;;;8.64;87.24;100251.18;1788733;80;21103;-61
2023/03/22 02:54:08;;;;;;;24.20;14.40;;;;;;;8.63;87.31;100253.58;1788703;80;21138;-62
2023/03/22 02:57:02;;;;;;;25.27;14.50;;;;;;;8.62;87.34;100252.41;1758918;80;21096;-60
2023/03/22 02:59:31;;;;;;;24.72;14.07;;;;;;;8.61;87.49;100261.63;1788495;80;21585;-60
2023/03/22 03:02:01;;;;;;;26.15;14.65;;;;;;;8.58;87.60;100260.97;1788685;80;21191;-61
2023/03/22 03:04:33;;;;;;;23.92;14.05;;;;;;;8.56;87.64;100260.31;1788855;79;21115;-60
2023/03/22 03:07:08;;;;;;;23.18;13.75;;;;;;;8.55;87.72;100264.60;1788578;80;21605;-61
2023/03/22 03:09:38;;;;;;;23.55;13.20;;;;;;;8.52;87.83;100271.28;1788518;80;21146;-61
2023/03/22 03:12:17;;;;;;;22.65;13.83;;;;;;;8.52;87.96;100268.55;1788617;80;21167;-61
2023/03/22 03:14:46;;;;;;;24.57;14.10;;;;;;;8.51;88.03;100272.32;1788523;79;21107;-60
2023/03/22 03:17:43;;;;;;;23.73;14.53;;;;;;;8.51;88.12;100271.47;1788596;80;21528;-61
2023/03/22 03:20:51;;;;;;;23.85;12.93;;;;;;;8.49;88.13;100275.76;1788707;80;21110;-60
2023/03/22 03:24:10;;;;;;;23.22;13.72;;;;;;;8.48;88.26;100276.80;1788931;80;21111;-61
2023/03/22 03:27:09;;;;;;;19.12;11.63;;;;;;;8.47;88.37;100272.37;1790866;80;21166;-61
2023/03/22 03:29:42;;;;;;;18.65;11.38;;;;;;;8.48;88.55;100279.52;1791983;80;21119;-60
2023/03/22 03:32:24;;;;;;;21.82;12.00;;;;;;;8.46;88.66;100277.49;1792216;80;21115;-60
2023/03/22 03:35:09;;;;;;;19.02;11.53;;;;;;;8.46;88.72;100282.95;1791119;80;21355;-61
2023/03/22 03:37:47;;;;;;;16.73;10.72;;;;;;;8.46;88.82;100285.69;1788677;80;21165;-61
2023/03/22 03:40:24;;;;;;;16.37;10.38;;;;;;;8.46;88.90;100288.42;1788274;80;21127;-60
2023/03/22 03:42:53;;;;;;;17.05;10.20;;;;;;;8.50;88.94;100290.26;1788551;79;21100;-59
2023/03/22 03:45:24;;;;;;;16.93;10.38;;;;;;;8.52;88.89;100293.65;1788544;80;21587;-60
2023/03/22 03:47:58;;;;;;;16.52;10.13;;;;;;;8.51;88.78;100291.95;1771163;80;21138;-62
2023/03/22 03:50:27;;;;;;;17.32;11.20;;;;;;;8.50;88.82;100299.81;1788286;80;21158;-61
2023/03/22 03:52:57;;;;;;;18.52;11.53;;;;;;;8.51;88.86;100286.49;1788519;80;21119;-60
2023/03/22 03:55:27;;;;;;;16.42;10.48;;;;;;;8.52;88.91;100293.13;1788451;80;21135;-61
2023/03/22 03:57:56;;;;;;;17.35;10.68;;;;;;;8.54;88.89;100290.22;1788576;80;21142;-60
2023/03/22 04:00:29;;;;;;;16.80;11.03;;;;;;;8.53;88.86;100290.73;1788478;80;21099;-61
2023/03/22 04:03:05;;;;;;;;;;;;;;;8.54;88.91;100293.79;1751438;80;21126;-60
2023/03/22 04:05:45;;;;;;;16.77;10.60;;;;;;;8.56;88.82;100290.88;1788663;79;20202;-61
2023/03/22 04:08:15;;;;;;;16.85;10.10;;;;;;;8.55;88.78;100297.37;1788349;80;21174;-61
2023/03/22 04:10:48;;;;;;;17.62;10.65;;;;;;;8.54;88.82;100299.25;1788361;80;21126;-61
2023/03/22 04:13:23;;;;;;;16.75;10.58;;;;;;;8.54;88.85;100296.52;1788451;80;21162;-61
2023/03/22 04:15:54;;;;;;;16.95;10.93;;;;;;;8.55;88.78;100302.31;1788512;79;21119;-60
2023/03/22 04:18:28;;;;;;;17.37;10.48;;;;;;;8.56;88.77;100303.16;1788308;80;22148;-60
2023/03/22 04:20:56;;;;;;;17.50;10.13;;;;;;;8.56;88.68;100301.28;1788488;80;21206;-59
2023/03/22 04:23:25;;;;;;;17.85;10.98;;;;;;;8.57;88.70;100304.86;1788402;80;21134;-62
2023/03/22 04:25:58;;;;;;;18.62;10.75;;;;;;;8.56;88.65;100298.55;1788190;79;21146;-60
2023/03/22 04:28:32;;;;;;;18.17;11.38;;;;;;;8.57;88.68;100300.76;1787585;80;21103;-60
2023/03/22 04:31:02;;;;;;;22.30;11.45;;;;;;;8.57;88.71;100298.88;1771062;80;21139;-61
2023/03/22 04:33:46;;;;;;;17.95;11.05;;;;;;;8.60;88.73;100294.08;1787987;79;21146;-60
2023/03/22 04:36:38;;;;;;;15.10;10.18;;;;;;;8.62;88.61;100305.14;1788347;80;21119;-61
2023/03/22 04:39:09;;;;;;;16.67;10.38;;;;;;;8.62;88.50;100302.41;1787823;79;21115;-60
2023/03/22 04:41:39;;;;;;;16.23;9.85;;;;;;;8.63;88.52;100301.89;1788285;79;21616;-63
2023/03/22 04:44:10;;;;;;;16.37;9.63;;;;;;;8.63;88.55;100301.37;1788269;80;21559;-60
2023/03/22 04:46:43;;;;;;;18.48;9.23;;;;;;;8.65;88.43;100307.50;1788423;80;21150;-61
2023/03/22 04:49:14;;;;;;;18.00;10.05;;;;;;;8.67;88.37;100305.43;1788306;80;21151;-60
2023/03/22 04:51:45;;;;;;;16.17;9.70;;;;;;;8.67;88.38;100310.89;1788446;80;21103;-61
2023/03/22 04:54:26;;;;;;;16.57;9.75;;;;;;;8.70;88.39;100317.86;1787527;80;21146;-61
2023/03/22 04:56:55;;;;;;;18.55;10.48;;;;;;;8.72;88.23;100325.35;1788479;80;21115;-59
2023/03/22 04:59:24;;;;;;;16.62;9.50;;;;;;;8.72;88.15;100320.73;1788205;79;21119;-60
2023/03/22 05:01:56;;;;;;;17.40;10.10;;;;;;;8.73;88.02;100321.58;1770971;80;21142;-61
2023/03/22 05:04:28;;;;;;;15.58;9.60;;;;;;;8.73;88.01;100325.69;1788552;80;21111;-61
2023/03/22 05:07:01;;;;;;;15.35;9.03;;;;;;;8.74;87.93;100324.64;1788194;80;21134;-60
2023/03/22 05:09:35;;;;;;;14.90;9.28;;;;;;;8.75;87.84;100329.07;1787481;80;21145;-59
2023/03/22 05:12:06;;;;;;;16.93;10.32;;;;;;;8.78;87.66;100336.89;1788193;80;21648;-62
2023/03/22 05:14:43;;;;;;;17.12;10.58;;;;;;;8.77;87.71;100341.51;1750004;80;21119;-59
2023/03/22 05:17:14;;;;;;;16.48;10.00;;;;;;;8.79;87.75;100342.69;1788332;80;21107;-60
2023/03/22 05:19:44;;;;;;;15.15;9.68;;;;;;;8.81;87.72;100337.36;1771027;80;21610;-61
2023/03/22 05:22:13;;;;;;;16.87;9.63;;;;;;;8.84;87.62;100347.91;1770840;80;21103;-61
2023/03/22 05:24:44;;;;;;;16.23;9.08;;;;;;;8.85;87.44;100346.88;1788183;79;21143;-61
2023/03/22 05:27:16;;;;;;;18.67;10.68;;;;;;;8.86;87.31;100350.46;1781006;79;21128;-61
2023/03/22 05:29:45;;;;;;;18.32;10.20;;;;;;;8.85;87.27;100351.50;1774593;81;21175;-60
2023/03/22 05:32:24;;;;;;;17.35;10.95;;;;;;;8.84;87.16;100356.63;1774420;79;21151;-61
2023/03/22 05:34:51;;;;;;;17.80;9.70;;;;;;;8.83;87.15;100359.03;1774594;80;21115;-62
2023/03/22 05:37:22;;;;;;;15.70;9.35;;;;;;;8.85;87.18;100360.55;1774471;80;21170;-61
2023/03/22 05:39:54;;;;;;;18.15;10.23;;;;;;;8.87;87.11;100358.98;1774779;81;21186;-62
2023/03/22 05:42:25;;;;;;;16.87;10.15;;;;;;;8.89;86.87;100353.66;1774192;80;21135;-61
2023/03/22 05:44:55;;;;;;;16.07;9.88;;;;;;;8.87;86.85;100368.55;1774694;79;21084;-61
2023/03/22 05:47:25;;;;;;;18.25;9.75;;;;;;;8.87;86.99;100357.10;1774399;81;21625;-62
2023/03/22 05:49:57;;;;;;;15.15;9.65;;;;;;;8.89;86.94;100361.86;1774183;80;21100;-63
2023/03/22 05:52:27;;;;;;;18.67;10.25;;;;;;;8.92;86.88;100362.00;1774601;81;21144;-62
2023/03/22 05:55:07;;;;;;;18.67;10.32;;;;;;;8.97;86.70;100359.55;1764628;79;21621;-62
2023/03/22 05:57:36;;;;;;;15.90;9.68;;;;;;;8.97;86.65;100365.02;1774481;81;21107;-60
2023/03/22 06:00:12;;;;;;;15.58;9.50;;;;;;;8.98;86.71;100371.33;1774517;81;21601;-61
2023/03/22 06:02:43;;;;;;;19.15;10.35;;;;;;;9.00;86.59;100374.20;1774814;80;21175;-61
2023/03/22 06:05:15;;;;;;;15.93;9.08;;;;;;;9.03;86.59;100372.98;1774439;79;21516;-61
2023/03/22 06:07:47;;;;;;;19.10;9.68;;;;;;;9.07;86.42;100374.30;1774466;79;21151;-61
2023/03/22 06:10:18;;;;;;;13.38;8.15;;;;;;;9.09;86.23;100386.74;1774779;81;21104;-60
2023/03/22 06:12:48;;;;;;;14.10;8.45;;;;;;;9.09;86.15;100385.38;1774470;80;21496;-64
2023/03/22 06:15:19;;;;;;;17.82;9.83;;;;;;;9.12;85.91;100387.77;1773977;80;21076;-61
2023/03/22 06:17:59;;;;;;;13.95;8.08;;;;;;;9.12;85.76;100391.87;1747285;80;21669;-60
2023/03/22 06:20:32;;;;;;;14.05;7.72;;;;;;;9.14;85.68;100388.42;1774305;81;21143;-61
2023/03/22 06:23:04;;;;;;;13.20;8.20;;;;;;;9.16;85.55;100394.55;1774362;81;21150;-61
2023/03/22 06:25:34;;;;;;;23.20;9.28;;;;;;;9.23;85.33;100393.28;1774255;80;21142;-62
2023/03/22 06:28:04;;;;;;;19.45;9.33;;;;;;;9.23;85.26;100393.80;1774208;80;21194;-61
2023/03/22 06:30:36;;;;;;;15.30;8.93;;;;;;;9.25;85.25;100402.14;1774509;81;21167;-62
2023/03/22 06:33:09;;;;;;;17.10;9.23;;;;;;;9.27;85.35;100406.89;1773830;79;21104;-62
2023/03/22 06:35:40;;;;;;;18.27;9.70;;;;;;;9.32;85.36;100406.33;1774397;79;21183;-61
2023/03/22 06:38:12;;;;;;;13.98;8.80;;;;;;;9.34;85.11;100409.72;1774245;81;21162;-61
2023/03/22 06:40:43;;;;;;;14.03;8.35;;;;;;;9.33;84.90;100413.50;1774348;80;21155;-62
2023/03/22 06:43:12;;;;;;;19.37;9.28;;;;;;;9.37;84.88;100418.91;1774210;79;21115;-61
2023/03/22 06:45:46;;;;;;;20.72;9.38;;;;;;;9.39;84.78;100420.42;1774218;81;21108;-62
2023/03/22 06:48:17;;;;;;;17.25;9.85;;;;;;;9.43;84.80;100424.99;1774304;81;21159;-62
2023/03/22 06:50:55;;;;;;;25.62;9.78;;;;;;;9.45;84.70;100425.65;1772652;80;21103;-61
2023/03/22 06:53:30;;;;;;;18.48;10.25;;;;;;;9.47;84.52;100427.16;1774515;80;21131;-63
2023/03/22 06:55:59;;;;;;;25.08;10.05;;;;;;;9.49;84.57;100425.59;1774430;81;21136;-63
2023/03/22 06:58:29;;;;;;;30.45;10.95;;;;;;;9.53;84.35;100428.28;1774621;81;21108;-61
2023/03/22 07:00:59;;;;;;;22.65;10.55;;;;;;;9.51;84.25;100428.99;1774456;79;21115;-62
2023/03/22 07:03:29;;;;;;;26.17;12.65;;;;;;;9.52;84.36;100423.85;1774349;79;21158;-63
2023/03/22 07:06:04;;;;;;;32.42;13.22;;;;;;;9.57;84.34;100430.97;1774074;80;21176;-63
2023/03/22 07:08:34;;;;;;;28.27;12.33;;;;;;;9.59;84.21;100423.94;1774421;81;21116;-63
2023/03/22 07:11:06;;;;;;;25.75;11.55;;;;;;;9.65;84.27;100423.17;1731394;83;21127;-63
2023/03/22 07:13:38;;;;;;;27.80;10.85;;;;;;;9.71;84.16;100426.51;1656695;86;21146;-62
2023/03/22 07:16:09;;;;;;;21.15;10.23;;;;;;;9.76;83.71;100427.66;1733242;82;21119;-61
2023/03/22 07:18:47;;;;;;;22.45;12.03;;;;;;;9.82;83.59;100431.00;1734063;83;21120;-62
2023/03/22 07:21:16;;;;;;;31.37;12.20;;;;;;;9.92;83.34;100428.48;1709407;83;21170;-62
2023/03/22 07:23:46;;;;;;;20.88;10.65;;;;;;;9.99;82.98;100431.62;1731431;83;21139;-63
2023/03/22 07:26:18;;;;;;;21.27;10.90;;;;;;;10.04;82.72;100425.56;1654610;86;21155;-62
2023/03/22 07:28:51;;;;;;;25.10;10.78;;;;;;;10.14;82.51;100431.05;1746829;79;21591;-60
2023/03/22 07:31:21;;;;;;;19.23;10.75;;;;;;;10.22;82.09;100438.32;1782867;80;21550;-61
2023/03/22 07:33:55;;;;;;;31.12;10.43;;;;;;;10.31;81.99;100437.16;1778364;80;21092;-60
2023/03/22 07:36:25;;;;;;;26.52;10.43;;;;;;;10.39;81.19;100437.02;1782850;80;21079;-62
2023/03/22 07:38:56;;;;;;;22.25;10.48;;;;;;;10.45;81.11;100432.16;1782726;80;21159;-62
2023/03/22 07:41:30;;;;;;;22.00;10.15;;;;;;;10.53;80.87;100427.59;1782143;80;21100;-62
2023/03/22 07:44:01;;;;;;;19.45;9.95;;;;;;;10.58;80.43;100429.22;1777206;80;21590;-61
2023/03/22 07:46:32;;;;;;;17.30;9.25;;;;;;;10.65;80.34;100428.75;1780878;80;21103;-61
2023/03/22 07:49:17;;;;;;;24.77;9.35;;;;;;;10.74;80.00;100433.05;1782508;80;21079;-62
2023/03/22 07:51:53;;;;;;;29.02;10.68;;;;;;;10.81;79.21;100432.58;1762452;79;21155;-62
2023/03/22 07:54:22;;;;;;;19.75;9.60;;;;;;;10.86;79.12;100436.09;1783105;80;21527;-62
2023/03/22 07:56:53;;;;;;;26.05;10.08;;;;;;;10.94;79.18;100429.09;1781791;80;21107;-61
2023/03/22 07:59:23;;;;;;;24.77;9.88;;;;;;;11.03;78.61;100427.89;1782977;80;21111;-61
2023/03/22 08:01:52;;;;;;;17.82;9.45;;;;;;;11.17;78.54;100432.97;1782787;80;21147;-62
2023/03/22 08:04:25;;;;;;;25.65;9.43;;;;;;;11.28;77.92;100433.78;1782373;80;21169;-64
2023/03/22 08:06:57;;;;;;;19.45;8.98;;;;;;;11.43;77.19;100431.77;1782579;80;21143;-61
2023/03/22 08:09:28;;;;;;;17.48;9.10;;;;;;;11.61;76.33;100431.22;1782913;79;21130;-62
2023/03/22 08:11:58;;;;;;;15.78;9.30;;;;;;;11.84;75.84;100437.83;1782785;80;21581;-61
2023/03/22 08:14:27;;;;;;;19.27;8.98;;;;;;;12.17;75.50;100439.31;1782940;80;21119;-64
2023/03/22 08:17:00;;;;;;;27.77;16.77;;;;;;;12.51;73.54;100441.10;1782272;80;21552;-62
2023/03/22 08:19:30;;;;;;;40.43;12.10;;;;;;;12.72;72.87;100435.41;1783038;80;22015;-64
2023/03/22 08:22:00;;;;;;;16.35;8.40;;;;;;;13.03;71.58;100438.92;1782766;80;21146;-62
2023/03/22 08:24:31;;;;;;;15.38;8.35;;;;;;;13.26;70.96;100433.00;1779820;80;21574;-62
2023/03/22 08:27:02;;;;;;;35.50;9.70;;;;;;;13.57;68.71;100433.13;1782495;80;21110;-62
2023/03/22 08:29:42;;;;;;;15.55;8.95;;;;;;;13.75;66.72;100439.88;1788232;79;21103;-62
2023/03/22 08:32:11;;;;;;;15.48;8.68;;;;;;;13.88;66.12;100435.70;1788431;79;21143;-61
2023/03/22 08:34:40;;;;;;;17.60;8.78;;;;;;;14.22;65.03;100433.93;1788504;80;21154;-62
2023/03/22 08:37:10;;;;;;;21.35;10.43;;;;;;;14.52;64.17;100432.00;1788444;79;21154;-61
2023/03/22 08:39:39;;;;;;;15.10;8.90;;;;;;;14.75;62.93;100446.04;1770532;80;21135;-62
2023/03/22 08:42:28;;;;;;;14.75;8.63;;;;;;;15.00;62.62;100435.58;1788046;80;21761;-63
2023/03/22 08:44:58;;;;;;;14.55;9.28;;;;;;;15.33;61.16;100434.72;1788505;79;21159;-63
2023/03/22 08:47:28;;;;;;;14.90;8.95;;;;;;;15.49;59.38;100438.27;1788331;80;21103;-63
2023/03/22 08:49:59;;;;;;;13.72;8.45;;;;;;;15.54;58.50;100440.34;1788284;80;21669;-61
2023/03/22 08:52:35;;;;;;;13.53;8.75;;;;;;;15.58;58.20;100446.28;1787033;80;21198;-63
2023/03/22 08:55:09;;;;;;;16.82;10.00;;;;;;;15.67;57.95;100429.20;1771854;79;21107;-62
2023/03/22 08:57:58;;;;;;;17.05;8.63;;;;;;;15.60;57.59;100433.93;1707881;84;21146;-63
2023/03/22 09:00:34;;;;;;;11.78;7.47;;;;;;;15.41;57.96;100433.05;1684886;84;21573;-62
2023/03/22 09:03:07;;;;;;;16.82;8.15;;;;;;;15.24;58.14;100430.56;1720991;81;21225;-62
2023/03/22 09:05:36;;;;;;;11.53;6.67;;;;;;;15.12;58.38;100437.37;1757225;82;21194;-61
2023/03/22 09:08:07;;;;;;;10.72;6.75;;;;;;;14.98;58.46;100425.30;1757018;81;21178;-63
2023/03/22 09:10:39;;;;;;;9.63;6.12;;;;;;;14.89;57.98;100435.20;1764735;80;21097;-61
2023/03/22 09:13:12;;;;;;;10.20;6.10;;;;;;;14.84;58.00;100435.58;1787335;80;21554;-63
2023/03/22 09:15:45;;;;;;;9.68;6.00;;;;;;;14.70;57.98;100433.45;1788144;80;21561;-61
2023/03/22 09:18:16;;;;;;;15.63;6.67;;;;;;;14.49;57.95;100432.45;1788104;80;21107;-64
2023/03/22 09:20:46;;;;;;;9.93;6.03;;;;;;;14.25;58.51;100427.98;1788097;80;21154;-63
2023/03/22 09:23:18;;;;;;;13.35;6.15;;;;;;;14.04;58.65;100431.06;1760218;80;21091;-63
2023/03/22 09:25:46;;;;;;;10.82;4.55;;;;;;;13.92;59.54;100438.33;1788119;79;21138;-62
2023/03/22 09:28:17;;;;;;;10.72;5.60;;;;;;;13.90;59.82;100435.79;1768298;79;21104;-62
2023/03/22 09:30:50;;;;;;;8.38;5.40;;;;;;;13.91;59.49;100436.64;1765177;81;21139;-63
2023/03/22 09:33:19;;;;;;;8.53;5.37;;;;;;;13.86;59.71;100435.06;1733239;83;21609;-63
2023/03/22 09:35:49;;;;;;;11.57;6.37;;;;;;;13.81;59.71;100432.12;1732786;82;21157;-62
2023/03/22 09:38:20;;;;;;;9.55;5.90;;;;;;;13.72;59.89;100438.41;1733148;81;21586;-63
2023/03/22 09:41:01;;;;;;;10.90;5.95;;;;;;;13.58;59.97;100441.70;1741779;82;21155;-62
2023/03/22 09:43:37;;;;;;;11.75;6.22;;;;;;;13.50;60.40;100442.47;1743735;81;21618;-62
2023/03/22 09:46:12;;;;;;;10.00;6.28;;;;;;;13.42;60.81;100442.17;1743569;82;21116;-62
2023/03/22 09:48:41;;;;;;;11.50;6.20;;;;;;;13.35;61.22;100435.84;1733812;82;21154;-61
2023/03/22 09:51:39;;;;;;;10.98;6.80;;;;;;;13.31;61.65;100437.33;1744077;82;21119;-62
2023/03/22 09:54:32;;;;;;;11.83;6.45;;;;;;;13.30;62.00;100441.14;1744093;82;21119;-61
2023/03/22 09:57:26;;;;;;;14.87;7.28;;;;;;;13.33;61.88;100439.34;1758527;81;21080;-63
2023/03/22 10:00:17;;;;;;;11.48;6.50;;;;;;;13.38;61.90;100440.91;1772158;80;21159;-62
2023/03/22 10:03:11;;;;;;;11.12;6.42;;;;;;;13.37;61.68;100432.88;1754930;81;21614;-63
2023/03/22 10:05:46;;;;;;;9.93;6.05;;;;;;;13.32;61.62;100429.39;1744071;82;21127;-63
2023/03/22 10:08:35;;;;;;;11.38;6.22;;;;;;;13.27;61.58;100427.28;1743759;81;21108;-63
2023/03/22 10:11:16;;;;;;;11.08;6.50;;;;;;;13.22;61.54;100431.73;1731279;82;21198;-62
2023/03/22 10:14:02;;;;;;;9.68;6.12;;;;;;;13.18;61.54;100424.97;1734392;82;21175;-61
2023/03/22 10:16:32;;;;;;;13.87;6.93;;;;;;;13.15;61.83;100426.74;1705947;84;21143;-62
2023/03/22 10:19:32;;;;;;;16.82;6.95;;;;;;;13.16;62.20;100429.28;1707908;82;21134;-65
2023/03/22 10:22:03;;;;;;;13.13;6.40;;;;;;;13.24;62.36;100424.11;1701542;84;21142;-63
2023/03/22 10:24:34;;;;;;;15.85;6.55;;;;;;;13.32;61.98;100421.98;1701665;84;21123;-63
2023/03/22 10:27:06;;;;;;;11.05;5.90;;;;;;;13.38;61.89;100429.05;1701618;83;21291;-63
2023/03/22 10:29:39;;;;;;;12.28;5.75;;;;;;;13.42;61.67;100422.91;1700949;84;21199;-63
2023/03/22 10:32:21;;;;;;;6.53;4.97;;;;;;;13.46;61.05;100424.70;1701587;84;21282;-63
2023/03/22 10:34:50;;;;;;;9.73;5.30;;;;;;;13.48;60.78;100420.66;1701637;84;21166;-63
2023/03/22 10:37:30;;;;;;;10.58;5.25;;;;;;;13.50;60.51;100422.67;1656252;84;21522;-63
2023/03/22 10:40:07;;;;;;;7.83;5.12;;;;;;;13.49;60.40;100413.25;1722495;82;21094;-63
2023/03/22 10:42:36;;;;;;;7.58;4.90;;;;;;;13.46;60.05;100421.41;1761667;80;21468;-63
2023/03/22 10:45:13;;;;;;;9.88;4.67;;;;;;;13.44;59.94;100411.15;1716230;83;21551;-62
2023/03/22 10:47:48;;;;;;;13.18;5.28;;;;;;;13.47;60.18;100418.97;1783164;80;21249;-63
2023/03/22 10:50:27;;;;;;;7.65;4.40;;;;;;;13.50;60.04;100421.30;1785786;80;21150;-64
2023/03/22 10:53:18;;;;;;;11.30;4.28;;;;;;;13.49;59.47;100418.23;1630439;88;21259;-62
2023/03/22 10:55:47;;;;;;;7.75;3.50;;;;;;;13.47;59.09;100418.97;1630306;88;21202;-64
2023/03/22 10:58:18;;;;;;;7.75;3.42;;;;;;;13.44;58.68;100419.41;1629615;88;21265;-63
2023/03/22 11:00:51;;;;;;;6.90;3.17;;;;;;;13.42;58.16;100410.52;1628222;88;21626;-64
2023/03/22 11:03:39;;;;;;;9.93;3.98;;;;;;;13.36;57.87;100419.64;1627761;88;21151;-64
2023/03/22 11:06:13;;;;;;;6.03;3.00;;;;;;;13.28;57.53;100415.74;1627906;88;21135;-63
2023/03/22 11:08:57;;;;;;;18.55;3.60;;;;;;;13.22;57.30;100415.23;1627923;88;21242;-64
2023/03/22 11:11:29;;;;;;;6.65;3.12;;;;;;;13.18;57.21;100416.19;1682681;83;21138;-61
2023/03/22 11:14:13;;;;;;;4.95;3.30;;;;;;;13.16;57.39;100406.42;1783104;80;21107;-62
2023/03/22 11:16:53;;;;;;;10.18;3.80;;;;;;;13.15;57.42;100411.08;1783374;80;21558;-61
2023/03/22 11:19:38;;;;;;;16.82;3.70;;;;;;;13.15;57.21;100406.95;1716255;83;21167;-61
2023/03/22 11:22:27;;;;;;;11.97;3.50;;;;;;;13.18;57.38;100403.80;1783266;80;21150;-60
2023/03/22 11:24:59;;;;;;;4.78;2.87;;;;;;;13.23;57.24;100411.41;1783465;80;21621;-60
2023/03/22 11:27:32;;;;;;;12.68;3.67;;;;;;;13.29;56.83;100406.42;1689383;83;21536;-59
2023/03/22 11:30:22;;;;;;;5.15;3.12;;;;;;;13.30;56.66;100396.58;1767826;80;21116;-60
2023/03/22 11:33:17;;;;;;;8.23;3.67;;;;;;;13.32;57.07;100398.59;1742524;82;21533;-61
2023/03/22 11:35:49;;;;;;;7.30;3.45;;;;;;;13.33;56.19;100389.80;1757083;81;21152;-61
2023/03/22 11:38:36;;;;;;;5.30;3.05;;;;;;;13.31;55.93;100389.17;1756929;81;21168;-60
2023/03/22 11:41:31;;;;;;;7.47;3.30;;;;;;;13.29;55.87;100399.55;1757152;80;21164;-60
2023/03/22 11:44:05;;;;;;;7.75;3.40;;;;;;;13.26;55.90;100393.95;1756916;80;21077;-59
2023/03/22 11:46:35;;;;;;;6.80;3.47;;;;;;;13.26;56.04;100386.22;1757022;80;21124;-61
2023/03/22 11:49:11;;;;;;;8.68;3.70;;;;;;;13.27;56.17;100385.16;1716426;82;21124;-59
2023/03/22 11:51:43;;;;;;;6.20;3.80;;;;;;;13.30;56.03;100380.59;1757132;81;21156;-59
2023/03/22 11:54:25;;;;;;;9.48;3.80;;;;;;;13.29;55.84;100377.53;1757142;82;21121;-60
2023/03/22 11:57:00;;;;;;;12.05;4.15;;;;;;;13.27;55.96;100381.03;1757149;81;21552;-59